Asert, OR

2:20 PM PDT on April 18, 2015 (GMT -0700)
Hogan and Roberts | | Change Station
CLOSE
Current Station
Personal Weather Station
Location: Gresham, OR
Elevation: 384 ft
Nearby Weather Stations

Elev 384 ft 45.49 °N, 122.42 °W | Updated 28 seconds ago

Clear
Clear
70.9 °F
Feels Like 76 °F
N
0.0
Wind Variable Wind from NW
Gusts 3.1 mph

Today
High -- | Low -- °F
--% Chance of Precip.
Yesterday
High -- | Low -- °F
Precip. -- in
6:19 AM 7:59 PM
New Moon, 0% visible
Pressure 30.22 in
Visibility 10.0 miles
Clouds Clear
Heat Index 76 °F
Dew Point 40 °F
Humidity 32%
Rainfall 0.00 in
Snow Depth Not available.
UV 8 out of 12
Pollen 10.10 out of 12
Air Quality Not available.
Flu Activity Regional
METAR KTTD 182053Z VRB05KT 10SM CLR 22/09 A3022 RMK AO2 SLP233 T02170089 56022

More Conditions Fewer Conditions

Pressure 30.22 in
Visibility 10.0 miles
Clouds Clear
Heat Index 76 °F
Dew Point 40 °F
Humidity 32%
Rainfall 0.00 in
Snow Depth Not available.
UV 8 out of 12
Pollen 10.10 out of 12
Air Quality Not available.
Flu Activity Regional
METAR KTTD 182053Z VRB05KT 10SM CLR 22/09 A3022 RMK AO2 SLP233 T02170089 56022

More Conditions Fewer Conditions

10-Day Weather Forecast

Almanac

Astronomy

Apr. 18, 2015 Rise Set
Actual Time
Civil Twilight
Nautical Twilight
Astronomical Twilight
Moon
Length of Visible Light
Length of Day
Tomorrow will be .
, % of the Moon is Illuminated

Today's Extremes

State Highs State Lows

Community

WunderPhotos

Upload Photos

1,814,531 photos uploaded!

WunderBlogs® & News

Nearby

Air Quality

  Air Quality AQ Index Pollutant
Not available.

Snow Depth

Station Depth Elevation

Earthquake Activity

City Distance Mag. Time & Date
Minimum magnitude displayed is 2.5.

Coastal Water Temperatures

Place Temperature

Stations

Nearby Weather Stations

Station Location Temp. Windchill Dew Point Humidity Wind Precip. Elev Updated Type